createdAt,value
2023-04-02T00:01:36.880Z,101029.19
2023-04-02T00:04:14.806Z,101031.84
2023-04-02T00:06:46.209Z,101046.72
2023-04-02T00:09:25.859Z,101047.88
2023-04-02T00:11:54.769Z,101050.34
2023-04-02T00:14:26.542Z,101054.78
2023-04-02T00:16:57.189Z,101063.06
2023-04-02T00:19:31.994Z,101066.69
2023-04-02T00:22:00.721Z,101066.34
2023-04-02T00:24:27.630Z,101066.50
2023-04-02T00:26:55.349Z,101081.06
2023-04-02T00:29:22.352Z,101077.28
2023-04-02T00:31:51.266Z,101082.28
2023-04-02T00:34:21.889Z,101092.84
2023-04-02T00:36:51.402Z,101094.28
2023-04-02T00:39:22.184Z,101101.75
2023-04-02T00:41:49.720Z,101104.53
2023-04-02T00:44:23.961Z,101107.53
2023-04-02T00:46:52.503Z,101113.66
2023-04-02T00:49:23.680Z,101108.88
2023-04-02T00:51:56.620Z,101119.31
2023-04-02T00:54:30.290Z,101114.03
2023-04-02T00:56:59.055Z,101120.75
2023-04-02T00:59:28.504Z,101118.94
2023-04-02T01:02:04.162Z,101125.41
2023-04-02T01:04:34.538Z,101135.78
2023-04-02T01:07:07.165Z,101140.94
2023-04-02T01:09:52.977Z,101148.00
2023-04-02T01:12:41.438Z,101157.09
2023-04-02T01:15:13.351Z,101162.38
2023-04-02T01:17:48.951Z,101162.22
2023-04-02T01:20:37.916Z,101169.00
2023-04-02T01:23:11.459Z,101168.31
2023-04-02T01:25:43.844Z,101160.25
2023-04-02T01:28:19.706Z,101175.47
2023-04-02T01:30:52.518Z,101185.22
2023-04-02T01:33:23.716Z,101176.06
2023-04-02T01:36:05.871Z,101207.81
2023-04-02T01:38:39.728Z,101199.38
2023-04-02T01:41:13.933Z,101204.81
2023-04-02T01:43:47.881Z,101213.72
2023-04-02T01:46:30.022Z,101209.88
2023-04-02T01:49:00.153Z,101214.19
2023-04-02T01:51:30.534Z,101220.47
2023-04-02T01:54:00.045Z,101226.72
2023-04-02T01:56:30.512Z,101220.09
2023-04-02T01:58:58.439Z,101232.78
2023-04-02T02:01:33.326Z,101237.41
2023-04-02T02:04:06.874Z,101243.50
2023-04-02T02:06:33.950Z,101249.59
2023-04-02T02:09:04.586Z,101255.69
2023-04-02T02:11:33.460Z,101257.53
2023-04-02T02:14:02.444Z,101263.47
2023-04-02T02:16:33.448Z,101265.00
2023-04-02T02:19:03.034Z,101270.28
2023-04-02T02:21:39.615Z,101278.50
2023-04-02T02:24:14.753Z,101289.75
2023-04-02T02:26:42.997Z,101283.50
2023-04-02T02:29:15.449Z,101289.91
2023-04-02T02:31:46.040Z,101295.88
2023-04-02T02:34:18.728Z,101302.69
2023-04-02T02:36:52.891Z,101303.66
2023-04-02T02:39:27.350Z,101309.56
2023-04-02T02:41:59.911Z,101324.75
2023-04-02T02:44:28.925Z,101314.09
2023-04-02T02:47:01.845Z,101321.31
2023-04-02T02:49:31.895Z,101318.84
2023-04-02T02:52:04.393Z,101329.03
2023-04-02T02:54:34.909Z,101333.78
2023-04-02T02:57:07.779Z,101342.38
2023-04-02T02:59:37.416Z,101347.53
2023-04-02T03:02:10.780Z,101356.44
2023-04-02T03:04:38.850Z,101351.75
2023-04-02T03:07:09.297Z,101360.81
2023-04-02T03:09:45.459Z,101354.69
2023-04-02T03:12:28.245Z,101363.75
2023-04-02T03:15:02.974Z,101376.81
2023-04-02T03:17:45.027Z,101381.72
2023-04-02T03:20:18.438Z,101386.31
2023-04-02T03:22:52.483Z,101399.38
2023-04-02T03:25:30.461Z,101397.16
2023-04-02T03:28:02.535Z,101403.97
2023-04-02T03:30:34.807Z,101406.63
2023-04-02T03:33:07.274Z,101407.72
2023-04-02T03:35:40.505Z,101418.44
2023-04-02T03:38:16.784Z,101420.09
2023-04-02T03:40:54.875Z,101428.22
2023-04-02T03:43:24.410Z,101425.84
2023-04-02T03:45:55.595Z,101431.25
2023-04-02T03:48:31.406Z,101441.69
2023-04-02T03:51:05.419Z,101447.13
2023-04-02T03:53:33.141Z,101461.03
2023-04-02T03:56:02.535Z,101464.63
2023-04-02T03:58:38.362Z,101469.09
2023-04-02T04:01:14.889Z,101468.38
2023-04-02T04:03:46.689Z,101486.06
2023-04-02T04:06:16.370Z,101490.09
2023-04-02T04:08:50.418Z,101499.31
2023-04-02T04:11:22.257Z,101498.75
2023-04-02T04:13:54.505Z,101510.28
2023-04-02T04:16:26.722Z,101511.53
2023-04-02T04:19:03.687Z,101514.31
2023-04-02T04:21:31.445Z,101519.59
2023-04-02T04:24:05.955Z,101525.84
2023-04-02T04:26:41.325Z,101523.22
2023-04-02T04:29:19.586Z,101533.50
2023-04-02T04:31:49.506Z,101539.75
2023-04-02T04:34:23.166Z,101543.38
2023-04-02T04:36:56.624Z,101544.66
2023-04-02T04:39:30.753Z,101554.63
2023-04-02T04:42:02.321Z,101562.28
2023-04-02T04:44:41.830Z,101578.44
2023-04-02T04:47:14.303Z,101574.97
2023-04-02T04:49:45.707Z,101584.69
2023-04-02T04:52:19.032Z,101589.25
2023-04-02T04:54:50.091Z,101603.00
2023-04-02T04:57:29.487Z,101599.25
2023-04-02T05:00:03.985Z,101609.81
2023-04-02T05:02:36.623Z,101629.81
2023-04-02T05:05:20.953Z,101630.66
2023-04-02T05:07:59.673Z,101636.72
2023-04-02T05:10:33.772Z,101643.66
2023-04-02T05:13:07.487Z,101643.81
2023-04-02T05:15:39.301Z,101659.63
2023-04-02T05:18:14.166Z,101665.75
2023-04-02T05:20:48.093Z,101665.28
2023-04-02T05:23:20.006Z,101675.53
2023-04-02T05:25:54.877Z,101683.44
2023-04-02T05:28:26.790Z,101691.00
2023-04-02T05:30:56.663Z,101696.41
2023-04-02T05:33:27.311Z,101697.03
2023-04-02T05:36:00.943Z,101708.69
2023-04-02T05:38:29.956Z,101709.78
2023-04-02T05:41:03.044Z,101708.38
2023-04-02T05:43:33.248Z,101716.56
2023-04-02T05:46:07.882Z,101722.09
2023-04-02T05:48:38.983Z,101724.72
2023-04-02T05:51:12.132Z,101734.97
2023-04-02T05:53:45.575Z,101731.03
2023-04-02T05:56:19.136Z,101743.38
2023-04-02T05:58:51.017Z,101751.53
2023-04-02T06:01:29.373Z,101752.50
2023-04-02T06:04:02.953Z,101754.78
2023-04-02T06:06:45.769Z,101765.56
2023-04-02T06:09:18.106Z,101767.97
2023-04-02T06:11:47.925Z,101770.59
2023-04-02T06:14:16.882Z,101773.34
2023-04-02T06:16:45.964Z,101774.44
2023-04-02T06:19:21.425Z,101788.41
2023-04-02T06:21:58.272Z,101794.88
2023-04-02T06:24:33.056Z,101805.69
2023-04-02T06:27:06.247Z,101809.03
2023-04-02T06:29:39.792Z,101808.34
2023-04-02T06:32:08.380Z,101825.94
2023-04-02T06:34:37.961Z,101833.88
2023-04-02T06:37:17.390Z,101829.78
2023-04-02T06:39:47.049Z,101837.13
2023-04-02T06:42:19.527Z,101844.44
2023-04-02T06:44:51.313Z,101851.63
2023-04-02T06:47:30.249Z,101865.50
2023-04-02T06:50:04.389Z,101864.94
2023-04-02T06:52:36.159Z,101878.56
2023-04-02T06:55:18.025Z,101886.03
2023-04-02T06:57:45.013Z,101886.38
2023-04-02T07:00:25.069Z,101890.13
2023-04-02T07:02:53.554Z,101893.69
2023-04-02T07:05:43.771Z,101907.00
2023-04-02T07:08:12.181Z,101908.06
2023-04-02T07:10:39.135Z,101912.50
2023-04-02T07:13:06.789Z,101920.53
2023-04-02T07:15:36.405Z,101917.66
2023-04-02T07:18:04.607Z,101925.66
2023-04-02T07:20:34.533Z,101939.47
2023-04-02T07:23:04.504Z,101939.34
2023-04-02T07:25:34.364Z,101944.97
2023-04-02T07:28:01.591Z,101951.06
2023-04-02T07:30:28.772Z,101946.41
2023-04-02T07:32:55.933Z,101953.09
2023-04-02T07:35:22.892Z,101960.28
2023-04-02T07:37:54.468Z,101963.63
2023-04-02T07:40:24.272Z,101962.47
2023-04-02T07:42:52.794Z,101960.41
2023-04-02T07:45:20.445Z,101974.31
2023-04-02T07:47:47.691Z,101973.56
2023-04-02T07:50:19.127Z,101980.75
2023-04-02T07:52:46.434Z,101975.63
2023-04-02T07:55:16.219Z,101983.03
2023-04-02T07:57:49.503Z,101988.56
2023-04-02T08:00:18.893Z,101990.94
2023-04-02T08:02:46.949Z,101995.88
2023-04-02T08:05:14.670Z,102003.66
2023-04-02T08:07:43.084Z,102002.56
2023-04-02T08:10:12.622Z,102004.97
2023-04-02T08:12:39.366Z,102005.81
2023-04-02T08:15:07.543Z,102009.88
2023-04-02T08:17:35.853Z,102018.41
2023-04-02T08:20:04.427Z,102021.88
2023-04-02T08:22:31.513Z,102032.28
2023-04-02T08:24:58.403Z,102030.97
2023-04-02T08:27:25.530Z,102040.94
2023-04-02T08:29:52.481Z,102048.09
2023-04-02T08:32:19.815Z,102058.28
2023-04-02T08:34:48.185Z,102066.09
2023-04-02T08:37:15.735Z,102068.34
2023-04-02T08:39:43.679Z,102070.63
2023-04-02T08:42:22.213Z,102072.06
2023-04-02T08:45:21.108Z,102071.13
2023-04-02T08:47:55.482Z,102069.19
2023-04-02T08:50:30.284Z,102080.22
2023-04-02T08:52:59.067Z,102085.63
2023-04-02T08:55:36.383Z,102096.63
2023-04-02T08:58:16.447Z,102096.53
2023-04-02T09:00:45.857Z,102109.09
2023-04-02T09:03:18.365Z,102118.94
2023-04-02T09:05:48.520Z,102120.84
2023-04-02T09:08:18.655Z,102129.84
2023-04-02T09:10:53.624Z,102120.47
2023-04-02T09:13:27.237Z,102134.03
2023-04-02T09:16:02.258Z,102130.16
2023-04-02T09:18:33.642Z,102134.03
2023-04-02T09:21:17.460Z,102131.38
2023-04-02T09:23:44.264Z,102143.13
2023-04-02T09:26:20.577Z,102141.81
2023-04-02T09:28:50.598Z,102143.81
2023-04-02T09:31:21.396Z,102151.50
2023-04-02T09:33:49.524Z,102150.41
2023-04-02T09:36:32.988Z,102150.91
2023-04-02T09:39:06.389Z,102152.91
2023-04-02T09:41:36.700Z,102150.97
2023-04-02T09:44:18.573Z,102165.13
2023-04-02T09:46:55.232Z,102163.66
2023-04-02T09:49:27.371Z,102183.44
2023-04-02T09:52:20.614Z,102180.56
2023-04-02T09:55:04.828Z,102183.41
2023-04-02T09:57:33.601Z,102190.22
2023-04-02T10:00:30.562Z,102196.00
2023-04-02T10:03:05.783Z,102201.75
2023-04-02T10:05:40.499Z,102212.75
2023-04-02T10:08:19.265Z,102216.56
2023-04-02T10:10:58.091Z,102231.72
2023-04-02T10:13:28.819Z,102231.53
2023-04-02T10:16:00.211Z,102219.97
2023-04-02T10:18:38.706Z,102234.88
2023-04-02T10:21:08.132Z,102237.63
2023-04-02T10:23:36.524Z,102236.44
2023-04-02T10:26:29.087Z,102245.69
2023-04-02T10:29:34.359Z,102250.66
2023-04-02T10:32:08.943Z,102258.94
2023-04-02T10:34:43.720Z,102261.97
2023-04-02T10:37:30.965Z,102259.19
2023-04-02T10:40:11.050Z,102255.44
2023-04-02T10:42:57.376Z,102260.94
2023-04-02T10:45:38.934Z,102267.88
2023-04-02T10:48:12.615Z,102270.63
2023-04-02T10:50:48.786Z,102267.22
2023-04-02T10:53:28.306Z,102272.44
2023-04-02T10:56:03.632Z,102269.78
2023-04-02T10:58:34.437Z,102262.84
2023-04-02T11:01:07.999Z,102269.66
2023-04-02T11:03:40.028Z,102275.72
2023-04-02T11:06:16.760Z,102273.38
2023-04-02T11:08:47.294Z,102276.88
2023-04-02T11:11:18.941Z,102276.22
2023-04-02T11:13:55.453Z,102277.38
2023-04-02T11:16:22.591Z,102284.91
2023-04-02T11:19:08.882Z,102286.19
2023-04-02T11:21:55.129Z,102292.91
2023-04-02T11:24:43.548Z,102284.31
2023-04-02T11:27:23.699Z,102290.88
2023-04-02T11:29:52.882Z,102285.31
2023-04-02T11:32:42.647Z,102282.97
2023-04-02T11:35:25.209Z,102290.75
2023-04-02T11:37:54.709Z,102292.31
2023-04-02T11:40:42.767Z,102302.53
2023-04-02T11:43:49.513Z,102305.66
2023-04-02T11:49:57.505Z,102306.38
2023-04-02T11:52:27.709Z,102304.03
2023-04-02T11:54:58.456Z,102307.81
2023-04-02T11:57:46.095Z,102318.56
2023-04-02T12:00:31.030Z,102316.34
2023-04-02T12:03:19.000Z,102322.22
2023-04-02T12:06:02.847Z,102321.09
2023-04-02T12:08:50.890Z,102326.84
2023-04-02T12:11:32.687Z,102334.13
2023-04-02T12:14:00.772Z,102335.50
2023-04-02T12:16:32.688Z,102336.22
2023-04-02T12:19:00.620Z,102339.59
2023-04-02T12:21:29.697Z,102338.44
2023-04-02T12:23:58.769Z,102336.50
2023-04-02T12:26:32.286Z,102351.03
2023-04-02T12:29:15.938Z,102350.59
2023-04-02T12:31:44.690Z,102354.53
2023-04-02T12:34:16.364Z,102347.84
2023-04-02T12:36:57.161Z,102355.38
2023-04-02T12:39:26.696Z,102356.34
2023-04-02T12:41:55.941Z,102375.50
2023-04-02T12:44:24.524Z,102375.09
2023-04-02T12:46:55.194Z,102375.63
2023-04-02T12:49:34.892Z,102379.69
2023-04-02T12:52:06.589Z,102375.09
2023-04-02T12:54:45.653Z,102373.97
2023-04-02T12:57:39.575Z,102368.91
2023-04-02T13:01:06.044Z,102374.66
2023-04-02T13:03:33.000Z,102371.56
2023-04-02T13:05:59.897Z,102376.75
2023-04-02T13:08:30.734Z,102383.44
2023-04-02T13:11:03.074Z,102383.31
2023-04-02T13:13:35.716Z,102382.19
2023-04-02T13:16:22.755Z,102379.09
2023-04-02T13:18:50.726Z,102374.34
2023-04-02T13:21:28.834Z,102367.63
2023-04-02T13:23:58.112Z,102366.22
2023-04-02T13:26:27.202Z,102378.53
2023-04-02T13:29:00.639Z,102379.19
2023-04-02T13:31:28.102Z,102371.66
2023-04-02T13:33:55.015Z,102373.91
2023-04-02T13:36:22.059Z,102376.13
2023-04-02T13:38:48.965Z,102376.53
2023-04-02T13:41:22.481Z,102378.06
2023-04-02T13:43:50.486Z,102374.41
2023-04-02T13:46:21.570Z,102368.41
2023-04-02T13:48:49.626Z,102377.22
2023-04-02T13:51:18.351Z,102372.47
2023-04-02T13:53:47.272Z,102375.50
2023-04-02T13:56:14.273Z,102367.41
2023-04-02T13:58:42.745Z,102375.75
2023-04-02T14:01:09.954Z,102382.91
2023-04-02T14:03:37.793Z,102381.78
2023-04-02T14:06:13.403Z,102383.22
2023-04-02T14:08:50.767Z,102385.16
2023-04-02T14:11:35.863Z,102384.47
2023-04-02T14:14:22.926Z,102387.00
2023-04-02T14:17:02.828Z,102388.22
2023-04-02T14:19:46.871Z,102392.41
2023-04-02T14:22:26.082Z,102391.84
2023-04-02T14:24:59.996Z,102400.19
2023-04-02T14:27:39.065Z,102411.41
2023-04-02T14:30:18.380Z,102410.09
2023-04-02T14:32:54.842Z,102416.97
2023-04-02T14:35:27.457Z,102415.84
2023-04-02T14:38:06.216Z,102412.22
2023-04-02T14:40:39.041Z,102421.56
2023-04-02T14:43:11.684Z,102414.56
2023-04-02T14:45:56.063Z,102427.31
2023-04-02T14:48:32.962Z,102424.66
2023-04-02T14:51:04.700Z,102421.84
2023-04-02T14:53:37.596Z,102418.50
2023-04-02T14:56:08.504Z,102419.34
2023-04-02T14:58:41.600Z,102430.13
2023-04-02T15:01:16.387Z,102426.31
2023-04-02T15:03:50.129Z,102423.50
2023-04-02T15:06:21.457Z,102431.22
2023-04-02T15:09:02.071Z,102437.06
2023-04-02T15:11:34.300Z,102435.25
2023-04-02T15:14:07.030Z,102439.91
2023-04-02T15:16:36.576Z,102451.94
2023-04-02T15:19:10.128Z,102452.78
2023-04-02T15:21:55.814Z,102446.19
2023-04-02T15:24:31.429Z,102447.44
2023-04-02T15:27:12.045Z,102454.19
2023-04-02T15:29:54.543Z,102459.19
2023-04-02T15:32:29.964Z,102444.91
2023-04-02T15:35:05.904Z,102452.88
2023-04-02T15:37:39.696Z,102448.53
2023-04-02T15:40:44.450Z,102445.22
2023-04-02T15:43:20.707Z,102453.03
2023-04-02T15:45:53.571Z,102451.19
2023-04-02T15:48:30.719Z,102463.66
2023-04-02T15:51:20.390Z,102457.50
2023-04-02T15:53:52.523Z,102458.50
2023-04-02T15:56:26.714Z,102463.13
2023-04-02T15:59:19.644Z,102465.41
2023-04-02T16:01:54.175Z,102472.53
2023-04-02T16:04:47.119Z,102472.53
2023-04-02T16:07:30.955Z,102477.03
2023-04-02T16:10:06.982Z,102483.31
2023-04-02T16:12:35.341Z,102488.78
2023-04-02T16:15:14.023Z,102483.44
2023-04-02T16:17:43.930Z,102490.59
2023-04-02T16:20:19.996Z,102488.63
2023-04-02T16:23:00.422Z,102497.59
2023-04-02T16:25:31.369Z,102492.53
2023-04-02T16:28:08.305Z,102500.97
2023-04-02T16:30:53.976Z,102499.44
2023-04-02T16:33:33.753Z,102501.25
2023-04-02T16:36:16.405Z,102507.41
2023-04-02T16:38:57.137Z,102509.38
2023-04-02T16:41:33.604Z,102519.59
2023-04-02T16:44:12.743Z,102518.91
2023-04-02T16:46:51.370Z,102529.69
2023-04-02T16:49:26.805Z,102524.81
2023-04-02T16:52:08.068Z,102530.53
2023-04-02T16:54:47.060Z,102536.16
2023-04-02T16:57:24.474Z,102540.88
2023-04-02T17:00:01.201Z,102540.47
2023-04-02T17:02:42.972Z,102539.91
2023-04-02T17:05:20.373Z,102544.81
2023-04-02T17:08:01.549Z,102562.81
2023-04-02T17:10:32.475Z,102556.94
2023-04-02T17:13:15.298Z,102566.31
2023-04-02T17:15:47.155Z,102570.94
2023-04-02T17:18:18.614Z,102567.84
2023-04-02T17:20:46.001Z,102563.09
2023-04-02T17:23:19.661Z,102574.81
2023-04-02T17:25:50.824Z,102574.25
2023-04-02T17:28:25.541Z,102573.56
2023-04-02T17:30:56.345Z,102575.50
2023-04-02T17:33:26.776Z,102578.59
2023-04-02T17:36:05.275Z,102581.63
2023-04-02T17:38:41.046Z,102581.91
2023-04-02T17:41:16.232Z,102588.19
2023-04-02T17:43:51.962Z,102590.44
2023-04-02T17:46:27.236Z,102605.78
2023-04-02T17:49:02.347Z,102607.88
2023-04-02T17:51:39.508Z,102599.44
2023-04-02T17:54:21.482Z,102609.38
2023-04-02T17:57:01.657Z,102613.13
2023-04-02T17:59:41.216Z,102617.84
2023-04-02T18:02:30.074Z,102625.25
2023-04-02T18:05:08.400Z,102624.53
2023-04-02T18:07:44.992Z,102629.97
2023-04-02T18:10:23.020Z,102633.88
2023-04-02T18:12:58.157Z,102638.75
2023-04-02T18:15:47.370Z,102638.16
2023-04-02T18:18:31.055Z,102652.56
2023-04-02T18:21:07.756Z,102652.78
2023-04-02T18:23:44.759Z,102656.69
2023-04-02T18:26:22.777Z,102659.59
2023-04-02T18:28:59.974Z,102665.31
2023-04-02T18:31:34.880Z,102669.16
2023-04-02T18:34:17.801Z,102671.25
2023-04-02T18:36:55.596Z,102669.13
2023-04-02T18:39:28.960Z,102678.41
2023-04-02T18:42:05.080Z,102680.59
2023-04-02T18:44:48.832Z,102674.00
2023-04-02T18:47:19.966Z,102680.69
2023-04-02T18:49:51.950Z,102689.84
2023-04-02T18:52:19.061Z,102705.16
2023-04-02T18:54:50.707Z,102700.22
2023-04-02T18:57:23.833Z,102704.81
2023-04-02T18:59:57.496Z,102705.19
2023-04-02T19:02:44.249Z,102709.06
2023-04-02T19:05:22.390Z,102715.72
2023-04-02T19:07:53.210Z,102718.59
2023-04-02T19:10:27.393Z,102717.19
2023-04-02T19:12:55.873Z,102722.72
2023-04-02T19:15:30.488Z,102729.31
2023-04-02T19:18:06.207Z,102724.50
2023-04-02T19:20:41.713Z,102731.97
2023-04-02T19:23:24.377Z,102740.28
2023-04-02T19:26:01.000Z,102742.19
2023-04-02T19:28:33.968Z,102747.16
2023-04-02T19:31:19.352Z,102753.88
2023-04-02T19:33:50.353Z,102748.97
2023-04-02T19:36:49.373Z,102753.63
2023-04-02T19:40:03.284Z,102754.13
2023-04-02T19:42:34.141Z,102765.19
2023-04-02T19:45:03.183Z,102764.72
2023-04-02T19:47:29.929Z,102764.25
2023-04-02T19:49:57.120Z,102773.34
2023-04-02T19:52:23.989Z,102779.72
2023-04-02T19:54:50.759Z,102780.19
2023-04-02T19:57:17.786Z,102780.66
2023-04-02T19:59:44.766Z,102789.81
2023-04-02T20:02:13.090Z,102789.91
2023-04-02T20:04:39.838Z,102792.66
2023-04-02T20:07:06.621Z,102787.47
2023-04-02T20:09:33.331Z,102789.28
2023-04-02T20:12:00.148Z,102799.16
2023-04-02T20:14:27.396Z,102792.28
2023-04-02T20:16:54.243Z,102802.97
2023-04-02T20:19:23.100Z,102798.63
2023-04-02T20:21:51.053Z,102799.00
2023-04-02T20:24:17.737Z,102802.59
2023-04-02T20:26:44.400Z,102799.84
2023-04-02T20:29:11.245Z,102807.88
2023-04-02T20:31:43.407Z,102810.63
2023-04-02T20:34:10.569Z,102813.41
2023-04-02T20:36:41.072Z,102820.63
2023-04-02T20:39:09.193Z,102825.91
2023-04-02T20:41:36.122Z,102825.06
2023-04-02T20:44:04.423Z,102816.16
2023-04-02T20:46:32.001Z,102820.81
2023-04-02T20:48:58.839Z,102818.31
2023-04-02T20:51:26.078Z,102821.19
2023-04-02T20:53:55.473Z,102824.03
2023-04-02T20:56:26.612Z,102832.09
2023-04-02T20:58:53.363Z,102829.78
2023-04-02T21:01:23.208Z,102834.47
2023-04-02T21:03:54.588Z,102842.50
2023-04-02T21:06:24.092Z,102849.84
2023-04-02T21:08:52.358Z,102847.19
2023-04-02T21:11:22.416Z,102854.28
2023-04-02T21:13:58.579Z,102851.94
2023-04-02T21:16:31.388Z,102854.59
2023-04-02T21:19:02.936Z,102855.53
2023-04-02T21:21:39.712Z,102855.78
2023-04-02T21:24:09.333Z,102855.78
2023-04-02T21:26:43.437Z,102859.25
2023-04-02T21:29:12.360Z,102862.84
2023-04-02T21:31:41.090Z,102868.34
2023-04-02T21:34:17.152Z,102875.56
2023-04-02T21:36:46.244Z,102874.09
2023-04-02T21:39:17.833Z,102874.31
2023-04-02T21:41:50.159Z,102878.75
2023-04-02T21:44:18.258Z,102885.31
2023-04-02T21:46:45.833Z,102874.97
2023-04-02T21:49:15.517Z,102883.22
2023-04-02T21:51:46.919Z,102885.31
2023-04-02T21:54:13.992Z,102881.31
2023-04-02T21:56:46.488Z,102890.19
2023-04-02T21:59:42.071Z,102891.16
2023-04-02T22:02:08.787Z,102892.22
2023-04-02T22:04:36.287Z,102891.47
2023-04-02T22:07:03.352Z,102894.47
2023-04-02T22:09:36.841Z,102890.97
2023-04-02T22:12:08.233Z,102888.53
2023-04-02T22:14:35.234Z,102899.09
2023-04-02T22:17:03.862Z,102894.13
2023-04-02T22:19:30.965Z,102892.53
2023-04-02T22:21:57.821Z,102900.56
2023-04-02T22:24:25.423Z,102892.53
2023-04-02T22:26:52.969Z,102894.22
2023-04-02T22:29:26.027Z,102907.53
2023-04-02T22:31:54.155Z,102899.84
2023-04-02T22:34:21.914Z,102900.78
2023-04-02T22:36:48.620Z,102902.69
2023-04-02T22:39:17.145Z,102911.66
2023-04-02T22:41:47.367Z,102904.81
2023-04-02T22:44:15.425Z,102910.09
2023-04-02T22:46:43.765Z,102911.88
2023-04-02T22:49:11.794Z,102910.19
2023-04-02T22:51:38.626Z,102909.34
2023-04-02T22:54:05.765Z,102906.88
2023-04-02T22:56:33.500Z,102907.13
2023-04-02T22:59:00.995Z,102911.56
2023-04-02T23:01:31.044Z,102908.38
2023-04-02T23:03:59.553Z,102905.75
2023-04-02T23:06:26.398Z,102912.91
2023-04-02T23:08:53.454Z,102907.63
2023-04-02T23:11:22.365Z,102913.84
2023-04-02T23:13:53.709Z,102920.84
2023-04-02T23:16:23.107Z,102920.00
2023-04-02T23:18:50.613Z,102919.56
2023-04-02T23:21:23.354Z,102931.16
2023-04-02T23:23:50.601Z,102926.72
2023-04-02T23:26:21.795Z,102927.78
2023-04-02T23:28:49.400Z,102921.66
2023-04-02T23:31:20.194Z,102923.53
2023-04-02T23:33:47.491Z,102918.25
2023-04-02T23:36:18.675Z,102924.47
2023-04-02T23:38:46.822Z,102920.34
2023-04-02T23:41:15.403Z,102936.19
2023-04-02T23:43:42.390Z,102926.47
2023-04-02T23:46:09.582Z,102932.59
2023-04-02T23:48:36.317Z,102929.13
2023-04-02T23:51:03.859Z,102932.69
2023-04-02T23:53:32.001Z,102935.44
2023-04-02T23:56:01.026Z,102938.25
2023-04-02T23:58:28.509Z,102933.84
